Time;durP1;ratioP1;P1;durP2;ratioP2;P2;SDS_P1;SDS_P2;PMS_P1;PMS_P2;Temp;Humidity;BMP_temperature;BMP_pressure;BME280_temperature;BME280_humidity;BME280_pressure;Samples;Min_cycle;Max_cycle;Signal;HPM_P1;HPM_P2
2022/10/22 00:01:27;;;;;;;24.50;15.85;;;;;;;;;;2373393;56;21127;-74
2022/10/22 00:03:54;;;;;;;26.60;14.98;;;;;;;;;;2373754;56;21087;-74
2022/10/22 00:06:21;;;;;;;27.48;16.25;;;;;;;;;;2373118;56;21106;-74
2022/10/22 00:08:48;;;;;;;23.35;15.00;;;;;;;;;;2373169;56;21068;-74
2022/10/22 00:11:16;;;;;;;21.98;15.15;;;;;;;;;;2372984;56;21047;-74
2022/10/22 00:13:44;;;;;;;21.08;14.40;;;;;;;;;;2373747;56;21095;-74
2022/10/22 00:16:11;;;;;;;20.73;13.27;;;;;;;;;;2373234;56;21119;-75
2022/10/22 00:18:38;;;;;;;20.10;12.60;;;;;;;;;;2373554;56;21047;-74
2022/10/22 00:21:06;;;;;;;22.23;14.95;;;;;;;;;;2373243;56;21040;-74
2022/10/22 00:23:33;;;;;;;18.60;11.52;;;;;;;;;;2373445;56;21048;-75
2022/10/22 00:26:00;;;;;;;20.40;12.82;;;;;;;;;;2373498;56;21109;-74
2022/10/22 00:28:27;;;;;;;29.48;13.82;;;;;;;;;;2626219;52;21107;-74
2022/10/22 00:30:57;;;;;;;21.30;13.43;;;;;;;;;;2373337;56;21055;-75
2022/10/22 00:33:25;;;;;;;24.17;14.38;;;;;;;;;;2373905;56;21183;-74
2022/10/22 00:35:52;;;;;;;19.65;12.60;;;;;;;;;;2373338;56;21059;-74
2022/10/22 00:38:19;;;;;;;24.55;14.98;;;;;;;;;;2373695;56;21301;-75
2022/10/22 00:40:46;;;;;;;23.52;14.32;;;;;;;;;;2372512;56;21036;-74
2022/10/22 00:43:14;;;;;;;22.83;14.73;;;;;;;;;;2373609;56;21672;-74
2022/10/22 00:45:43;;;;;;;23.23;15.55;;;;;;;;;;2373542;56;21593;-74
2022/10/22 00:48:11;;;;;;;28.58;16.83;;;;;;;;;;2372858;56;21079;-74
2022/10/22 00:50:41;;;;;;;29.17;17.52;;;;;;;;;;2373527;56;21124;-75
2022/10/22 00:53:10;;;;;;;30.80;17.55;;;;;;;;;;2373889;56;21602;-75
2022/10/22 00:55:38;;;;;;;28.25;16.98;;;;;;;;;;2373192;56;21661;-75
2022/10/22 00:58:05;;;;;;;27.30;16.23;;;;;;;;;;2372869;56;21040;-74
2022/10/22 01:00:32;;;;;;;22.27;15.07;;;;;;;;;;2626621;52;21048;-73
2022/10/22 01:02:59;;;;;;;22.87;15.45;;;;;;;;;;2373560;56;21079;-74
2022/10/22 01:05:27;;;;;;;24.05;14.77;;;;;;;;;;2372986;56;21020;-75
2022/10/22 01:07:54;;;;;;;22.05;15.13;;;;;;;;;;2373483;56;22178;-73
2022/10/22 01:10:31;;;;;;;24.37;15.43;;;;;;;;;;2373569;56;21593;-74
2022/10/22 01:15:39;;;;;;;28.45;16.35;;;;;;;;;;2340872;57;22115;-74
2022/10/22 01:18:07;;;;;;;22.25;15.82;;;;;;;;;;2347147;57;21057;-74
2022/10/22 01:20:53;;;;;;;25.02;15.13;;;;;;;;;;2346929;57;21046;-74
2022/10/22 01:23:52;;;;;;;25.73;16.98;;;;;;;;;;2594350;52;21636;-75
2022/10/22 01:26:23;;;;;;;27.35;15.65;;;;;;;;;;2379295;55;73790;-79
2022/10/22 01:28:56;;;;;;;26.48;16.02;;;;;;;;;;2274721;59;21071;-78
2022/10/22 01:31:24;;;;;;;25.02;15.77;;;;;;;;;;2506877;55;21111;-78
2022/10/22 01:33:53;;;;;;;26.08;15.23;;;;;;;;;;2506427;55;21095;-78
2022/10/22 01:36:21;;;;;;;19.58;12.77;;;;;;;;;;2506821;55;21195;-78
2022/10/22 01:38:49;;;;;;;23.05;14.65;;;;;;;;;;2275156;59;21061;-78
2022/10/22 01:41:17;;;;;;;23.87;16.40;;;;;;;;;;2274831;59;21114;-78
2022/10/22 01:43:44;;;;;;;25.92;16.17;;;;;;;;;;2275083;59;21055;-78
2022/10/22 01:46:12;;;;;;;25.33;16.20;;;;;;;;;;2274978;59;21662;-78
2022/10/22 01:48:46;;;;;;;27.60;15.98;;;;;;;;;;2506865;55;21052;-81
2022/10/22 01:51:24;;;;;;;26.65;15.93;;;;;;;;;;2509790;55;21146;-81
2022/10/22 01:53:53;;;;;;;26.92;16.67;;;;;;;;;;2509648;55;21360;-81
2022/10/22 01:56:30;;;;;;;23.85;15.75;;;;;;;;;;2509882;54;21099;-81
2022/10/22 01:59:00;;;;;;;23.23;12.82;;;;;;;;;;2278270;59;21128;-81
2022/10/22 02:01:31;;;;;;;28.08;15.05;;;;;;;;;;2277727;59;21043;-81
2022/10/22 02:04:03;;;;;;;18.70;12.90;;;;;;;;;;2278108;59;21060;-80
2022/10/22 02:06:31;;;;;;;26.58;14.48;;;;;;;;;;2277790;59;21043;-81
2022/10/22 02:08:58;;;;;;;27.02;16.37;;;;;;;;;;2510060;55;21120;-81
2022/10/22 02:11:25;;;;;;;23.23;13.95;;;;;;;;;;2277620;59;21065;-81
2022/10/22 02:13:54;;;;;;;23.33;14.02;;;;;;;;;;2508858;55;21067;-80
2022/10/22 02:16:24;;;;;;;23.05;15.02;;;;;;;;;;2507969;54;21127;-80
2022/10/22 02:18:53;;;;;;;25.50;16.20;;;;;;;;;;2509166;55;21052;-80
2022/10/22 02:21:20;;;;;;;24.45;15.18;;;;;;;;;;2277165;59;21095;-79
2022/10/22 02:23:48;;;;;;;24.95;15.38;;;;;;;;;;2276906;59;21111;-79
2022/10/22 02:26:19;;;;;;;31.02;16.50;;;;;;;;;;2507610;54;21123;-80
2022/10/22 02:28:51;;;;;;;24.98;15.55;;;;;;;;;;2507430;55;21100;-79
2022/10/22 02:31:21;;;;;;;24.33;15.57;;;;;;;;;;2507339;55;21119;-79
2022/10/22 02:33:49;;;;;;;23.75;14.00;;;;;;;;;;2276093;59;21158;-80
2022/10/22 02:36:17;;;;;;;20.30;13.75;;;;;;;;;;2275937;59;21107;-80
2022/10/22 02:38:45;;;;;;;23.92;13.85;;;;;;;;;;2507115;55;21135;-80
2022/10/22 02:41:13;;;;;;;22.37;14.30;;;;;;;;;;2275201;59;21107;-80
2022/10/22 02:43:41;;;;;;;25.10;14.25;;;;;;;;;;2507579;55;21119;-79
2022/10/22 02:46:08;;;;;;;21.50;13.73;;;;;;;;;;2275005;59;21135;-79
2022/10/22 02:48:35;;;;;;;19.27;12.23;;;;;;;;;;2275640;59;21118;-79
2022/10/22 02:51:02;;;;;;;18.87;9.85;;;;;;;;;;2274793;59;21150;-79
2022/10/22 02:53:29;;;;;;;19.20;12.35;;;;;;;;;;2273932;59;21214;-79
2022/10/22 02:55:56;;;;;;;18.27;12.23;;;;;;;;;;2275643;59;21116;-79
2022/10/22 02:58:23;;;;;;;17.58;11.12;;;;;;;;;;2276247;59;21058;-79
2022/10/22 03:00:50;;;;;;;20.88;12.35;;;;;;;;;;2507533;55;21083;-79
2022/10/22 03:03:17;;;;;;;21.08;12.85;;;;;;;;;;2275820;59;21059;-79
2022/10/22 03:05:44;;;;;;;19.35;12.48;;;;;;;;;;2275917;59;21068;-79
2022/10/22 03:08:11;;;;;;;16.37;10.95;;;;;;;;;;2508336;55;21115;-80
2022/10/22 03:10:38;;;;;;;16.85;11.73;;;;;;;;;;2275837;59;21207;-78
2022/10/22 03:13:05;;;;;;;15.30;10.18;;;;;;;;;;2276153;59;21079;-79
2022/10/22 03:15:32;;;;;;;15.77;10.60;;;;;;;;;;2275759;59;21167;-79
2022/10/22 03:17:59;;;;;;;21.15;12.75;;;;;;;;;;2276035;59;21063;-79
2022/10/22 03:20:26;;;;;;;17.73;11.95;;;;;;;;;;2276073;59;21055;-79
2022/10/22 03:22:53;;;;;;;17.37;10.63;;;;;;;;;;2507551;55;21055;-79
2022/10/22 03:25:22;;;;;;;19.15;11.02;;;;;;;;;;2276011;59;21098;-80
2022/10/22 03:27:50;;;;;;;20.83;11.82;;;;;;;;;;2507813;55;21124;-79
2022/10/22 03:30:17;;;;;;;18.25;12.60;;;;;;;;;;2275563;59;21103;-79
2022/10/22 03:32:44;;;;;;;18.23;11.65;;;;;;;;;;2507170;55;21231;-80
2022/10/22 03:35:11;;;;;;;19.33;9.70;;;;;;;;;;2275319;59;21056;-78
2022/10/22 03:37:38;;;;;;;13.30;9.07;;;;;;;;;;2275074;59;21076;-79
2022/10/22 03:40:07;;;;;;;14.68;10.30;;;;;;;;;;2275871;59;21064;-79
2022/10/22 03:42:34;;;;;;;22.10;11.65;;;;;;;;;;2507155;55;21614;-79
2022/10/22 03:45:01;;;;;;;17.25;11.50;;;;;;;;;;2507129;54;21043;-78
2022/10/22 03:47:28;;;;;;;16.62;10.60;;;;;;;;;;2275542;59;21118;-79
2022/10/22 03:49:55;;;;;;;14.85;10.75;;;;;;;;;;2506848;55;21048;-79
2022/10/22 03:52:22;;;;;;;16.35;10.52;;;;;;;;;;2275577;59;21174;-79
2022/10/22 03:54:49;;;;;;;13.68;9.85;;;;;;;;;;2506777;54;21137;-78
2022/10/22 03:57:16;;;;;;;15.38;10.45;;;;;;;;;;2274921;59;21119;-78
2022/10/22 03:59:44;;;;;;;17.65;8.95;;;;;;;;;;2506589;55;21045;-79
2022/10/22 04:02:12;;;;;;;17.87;10.88;;;;;;;;;;2275289;59;21071;-79
2022/10/22 04:04:39;;;;;;;13.40;9.02;;;;;;;;;;2275581;59;21051;-78
2022/10/22 04:07:07;;;;;;;18.42;12.13;;;;;;;;;;2275561;59;21098;-79
2022/10/22 04:09:34;;;;;;;17.87;11.60;;;;;;;;;;2275394;59;21059;-79
2022/10/22 04:12:01;;;;;;;20.75;11.57;;;;;;;;;;2275357;59;21115;-79
2022/10/22 04:14:28;;;;;;;17.77;10.45;;;;;;;;;;2505738;55;21075;-78
2022/10/22 04:16:55;;;;;;;18.35;11.05;;;;;;;;;;2507231;54;21051;-80
2022/10/22 04:19:22;;;;;;;19.02;11.60;;;;;;;;;;2275610;59;21067;-79
2022/10/22 04:21:49;;;;;;;20.20;10.98;;;;;;;;;;2275327;59;21186;-79
2022/10/22 04:24:16;;;;;;;17.65;10.35;;;;;;;;;;2507792;55;21063;-79
2022/10/22 04:26:43;;;;;;;26.42;12.95;;;;;;;;;;2275850;59;21072;-79
2022/10/22 04:29:10;;;;;;;16.62;10.73;;;;;;;;;;2275379;59;21083;-79
2022/10/22 04:31:37;;;;;;;20.27;12.35;;;;;;;;;;2274613;59;21055;-79
2022/10/22 04:34:04;;;;;;;27.80;12.07;;;;;;;;;;2506111;55;21155;-79
2022/10/22 04:39:06;;;;;;;27.85;13.73;;;;;;;;;;2335940;57;27883;-76
2022/10/22 04:41:34;;;;;;;42.55;15.15;;;;;;;;;;2347429;57;21603;-76
2022/10/22 04:44:01;;;;;;;27.10;12.30;;;;;;;;;;2346886;57;21097;-75
2022/10/22 04:46:29;;;;;;;14.45;10.52;;;;;;;;;;2372284;56;21137;-76
2022/10/22 04:48:56;;;;;;;19.98;11.40;;;;;;;;;;2628171;52;21107;-76
2022/10/22 04:51:24;;;;;;;17.67;10.90;;;;;;;;;;2373753;56;21042;-75
2022/10/22 04:53:51;;;;;;;15.60;10.35;;;;;;;;;;2374525;56;21569;-75
2022/10/22 04:56:19;;;;;;;26.15;12.37;;;;;;;;;;2373437;56;21601;-76
2022/10/22 04:58:47;;;;;;;30.12;14.68;;;;;;;;;;2374043;56;21151;-76
2022/10/22 05:01:15;;;;;;;18.48;11.30;;;;;;;;;;2374333;56;21120;-75
2022/10/22 05:03:42;;;;;;;15.05;10.57;;;;;;;;;;2374376;56;21048;-76
2022/10/22 05:06:10;;;;;;;28.00;14.10;;;;;;;;;;2374401;56;21073;-76
2022/10/22 05:08:37;;;;;;;20.67;12.57;;;;;;;;;;2374380;56;21091;-75
2022/10/22 05:11:11;;;;;;;18.23;12.27;;;;;;;;;;2373754;56;21131;-76
2022/10/22 05:13:38;;;;;;;14.98;9.88;;;;;;;;;;2375127;56;21099;-76
2022/10/22 05:16:05;;;;;;;13.80;10.27;;;;;;;;;;2375028;56;21055;-76
2022/10/22 05:18:34;;;;;;;14.82;10.63;;;;;;;;;;2374576;56;21032;-76
2022/10/22 05:21:01;;;;;;;16.10;10.93;;;;;;;;;;2374721;56;21115;-76
2022/10/22 05:23:28;;;;;;;13.62;10.35;;;;;;;;;;2627689;52;21063;-76
2022/10/22 05:25:55;;;;;;;17.05;10.82;;;;;;;;;;2374958;56;21055;-76
2022/10/22 05:28:22;;;;;;;14.95;10.27;;;;;;;;;;2374367;56;21028;-76
2022/10/22 05:30:53;;;;;;;16.25;10.98;;;;;;;;;;2374673;56;21668;-76
2022/10/22 05:33:21;;;;;;;13.32;9.00;;;;;;;;;;2374539;56;21119;-75
2022/10/22 05:35:48;;;;;;;11.80;9.10;;;;;;;;;;2374800;56;21529;-76
2022/10/22 05:38:15;;;;;;;12.15;9.02;;;;;;;;;;2628363;52;21040;-76
2022/10/22 05:40:42;;;;;;;11.32;9.27;;;;;;;;;;2374494;56;21040;-76
2022/10/22 05:43:09;;;;;;;14.87;10.85;;;;;;;;;;2374776;56;21103;-76
2022/10/22 05:45:37;;;;;;;15.35;9.90;;;;;;;;;;2374308;56;21071;-76
2022/10/22 05:48:04;;;;;;;12.80;9.52;;;;;;;;;;2375014;56;21601;-76
2022/10/22 05:50:31;;;;;;;15.32;11.23;;;;;;;;;;2373729;56;21051;-76
2022/10/22 05:52:58;;;;;;;14.50;10.15;;;;;;;;;;2373664;56;21036;-76
2022/10/22 05:55:25;;;;;;;14.63;11.07;;;;;;;;;;2373757;56;21055;-75
2022/10/22 05:57:52;;;;;;;15.82;11.45;;;;;;;;;;2373633;56;21124;-75
2022/10/22 06:00:19;;;;;;;14.50;10.65;;;;;;;;;;2373758;56;21040;-75
2022/10/22 06:02:49;;;;;;;18.10;12.18;;;;;;;;;;2373557;56;21083;-75
2022/10/22 06:05:17;;;;;;;16.67;12.02;;;;;;;;;;2373580;56;21090;-75
2022/10/22 06:07:44;;;;;;;16.08;11.52;;;;;;;;;;2372644;56;21032;-75
2022/10/22 06:10:14;;;;;;;19.95;12.57;;;;;;;;;;2372798;56;21542;-75
2022/10/22 06:12:41;;;;;;;16.25;11.65;;;;;;;;;;2371435;56;21028;-76
2022/10/22 06:15:09;;;;;;;40.85;16.67;;;;;;;;;;2373137;56;21158;-75
2022/10/22 06:17:36;;;;;;;19.87;11.48;;;;;;;;;;2372990;56;21043;-74
2022/10/22 06:20:04;;;;;;;19.85;14.15;;;;;;;;;;2625359;52;21016;-75
2022/10/22 06:22:31;;;;;;;23.80;13.62;;;;;;;;;;2372569;56;21052;-74
2022/10/22 06:24:58;;;;;;;20.15;12.80;;;;;;;;;;2372882;56;21024;-75
2022/10/22 06:27:25;;;;;;;20.37;13.05;;;;;;;;;;2373073;56;21747;-75
2022/10/22 06:29:52;;;;;;;19.00;13.52;;;;;;;;;;2372379;56;21051;-75
2022/10/22 06:32:19;;;;;;;20.65;13.30;;;;;;;;;;2625873;52;21673;-76
2022/10/22 06:34:47;;;;;;;19.50;13.48;;;;;;;;;;2373670;56;21055;-75
2022/10/22 06:37:14;;;;;;;21.52;13.48;;;;;;;;;;2625735;52;21060;-75
2022/10/22 06:39:41;;;;;;;18.10;12.65;;;;;;;;;;2373314;56;21107;-75
2022/10/22 06:42:08;;;;;;;26.50;13.62;;;;;;;;;;2372773;56;21128;-75
2022/10/22 06:44:35;;;;;;;20.33;13.48;;;;;;;;;;2371170;56;21748;-74
2022/10/22 06:47:02;;;;;;;22.23;13.75;;;;;;;;;;2372553;56;21163;-75
2022/10/22 06:49:29;;;;;;;30.20;15.65;;;;;;;;;;2373741;56;21039;-75
2022/10/22 06:51:56;;;;;;;22.08;14.40;;;;;;;;;;2372329;56;21058;-75
2022/10/22 06:54:23;;;;;;;21.42;13.93;;;;;;;;;;2373533;56;21573;-76
2022/10/22 06:56:50;;;;;;;20.42;12.90;;;;;;;;;;2373258;56;21120;-75
2022/10/22 06:59:17;;;;;;;27.73;14.85;;;;;;;;;;2374002;56;21072;-75
2022/10/22 07:01:44;;;;;;;21.70;14.80;;;;;;;;;;2372992;56;21024;-75
2022/10/22 07:04:11;;;;;;;18.12;12.65;;;;;;;;;;2372463;56;21032;-75
2022/10/22 07:06:38;;;;;;;25.85;14.43;;;;;;;;;;2371961;56;21115;-75
2022/10/22 07:09:05;;;;;;;25.62;15.38;;;;;;;;;;2372770;56;21111;-75
2022/10/22 07:11:37;;;;;;;26.08;15.80;;;;;;;;;;2372703;56;21110;-75
2022/10/22 07:14:04;;;;;;;20.50;14.30;;;;;;;;;;2374005;56;21040;-75
2022/10/22 07:16:31;;;;;;;27.35;16.23;;;;;;;;;;2626600;52;21103;-75
2022/10/22 07:18:58;;;;;;;30.98;15.52;;;;;;;;;;2374101;56;21115;-74
2022/10/22 07:21:25;;;;;;;23.55;14.98;;;;;;;;;;2371140;56;21044;-75
2022/10/22 07:23:52;;;;;;;22.02;15.20;;;;;;;;;;2625552;52;21028;-75
2022/10/22 07:26:19;;;;;;;17.65;12.35;;;;;;;;;;2371154;56;21135;-75
2022/10/22 07:28:46;;;;;;;28.02;16.42;;;;;;;;;;2624647;52;21116;-75
2022/10/22 07:31:14;;;;;;;24.77;16.55;;;;;;;;;;2372055;56;21052;-75
2022/10/22 07:33:41;;;;;;;26.05;15.93;;;;;;;;;;2372439;56;21099;-75
2022/10/22 07:38:44;;;;;;;29.50;19.98;;;;;;;;;;2337199;57;28274;-77
2022/10/22 07:41:11;;;;;;;30.02;17.12;;;;;;;;;;2377285;56;21023;-79
2022/10/22 07:43:38;;;;;;;32.95;17.73;;;;;;;;;;2633764;52;21043;-79
2022/10/22 07:46:07;;;;;;;37.08;18.62;;;;;;;;;;2378776;56;21029;-79
2022/10/22 07:48:34;;;;;;;33.33;17.62;;;;;;;;;;2631931;52;21124;-82
2022/10/22 07:51:01;;;;;;;30.45;18.50;;;;;;;;;;2633078;52;21042;-80
2022/10/22 07:53:28;;;;;;;38.35;20.27;;;;;;;;;;2634550;52;21089;-81
2022/10/22 07:55:56;;;;;;;30.95;19.10;;;;;;;;;;2634566;51;21076;-80
2022/10/22 07:58:23;;;;;;;30.35;18.37;;;;;;;;;;2634607;52;21061;-80
2022/10/22 08:00:51;;;;;;;33.75;20.50;;;;;;;;;;2379856;56;21459;-80
2022/10/22 08:03:18;;;;;;;31.52;18.52;;;;;;;;;;2380496;56;21061;-80
2022/10/22 08:05:45;;;;;;;33.55;19.80;;;;;;;;;;2634239;51;21034;-81
2022/10/22 08:08:13;;;;;;;33.15;20.80;;;;;;;;;;2380191;56;21054;-80
2022/10/22 08:10:40;;;;;;;34.22;20.40;;;;;;;;;;2634454;52;21187;-79
2022/10/22 08:13:08;;;;;;;39.90;22.00;;;;;;;;;;2634927;52;21105;-80
2022/10/22 08:15:35;;;;;;;37.38;20.88;;;;;;;;;;2634793;52;21080;-81
2022/10/22 08:18:02;;;;;;;33.67;20.10;;;;;;;;;;2634634;52;21100;-81
2022/10/22 08:20:28;;;;;;;41.42;21.10;;;;;;;;;;2380291;56;21077;-81
2022/10/22 08:22:56;;;;;;;47.45;23.90;;;;;;;;;;2380125;56;21021;-81
2022/10/22 08:25:23;;;;;;;41.47;21.05;;;;;;;;;;2634347;52;21041;-81
2022/10/22 08:27:51;;;;;;;34.83;21.30;;;;;;;;;;2634766;52;21061;-81
2022/10/22 08:30:19;;;;;;;51.05;24.12;;;;;;;;;;2634896;52;21120;-80
2022/10/22 08:32:46;;;;;;;37.47;20.70;;;;;;;;;;2634354;52;21129;-80
2022/10/22 08:35:13;;;;;;;33.95;20.27;;;;;;;;;;2634834;52;21081;-81
2022/10/22 08:37:40;;;;;;;31.58;20.12;;;;;;;;;;2639925;52;21025;-81
2022/10/22 08:40:08;;;;;;;29.80;19.25;;;;;;;;;;2389271;56;21044;-81
2022/10/22 08:43:00;;;;;;;34.00;20.17;;;;;;;;;;2645621;52;21032;-80
2022/10/22 08:45:30;;;;;;;33.08;19.33;;;;;;;;;;2601102;52;21021;-81
2022/10/22 08:48:05;;;;;;;36.42;19.87;;;;;;;;;;2646129;52;21105;-80
2022/10/22 08:50:35;;;;;;;29.05;18.92;;;;;;;;;;2388551;56;21092;-80
2022/10/22 08:53:04;;;;;;;30.40;19.05;;;;;;;;;;2388618;56;21175;-81
2022/10/22 08:55:31;;;;;;;28.67;17.95;;;;;;;;;;2644294;52;21053;-81
2022/10/22 08:58:00;;;;;;;24.45;16.87;;;;;;;;;;2644561;52;21061;-81
2022/10/22 09:00:31;;;;;;;22.90;14.82;;;;;;;;;;2388209;56;21052;-82
2022/10/22 09:03:02;;;;;;;34.60;17.35;;;;;;;;;;2644795;51;21100;-81
2022/10/22 09:05:33;;;;;;;24.65;15.65;;;;;;;;;;2644842;52;21096;-81
2022/10/22 09:08:00;;;;;;;27.98;16.33;;;;;;;;;;2645023;52;21009;-81
2022/10/22 09:10:31;;;;;;;26.92;16.30;;;;;;;;;;2645029;52;21107;-81
2022/10/22 09:12:58;;;;;;;26.42;16.52;;;;;;;;;;2644592;52;21553;-81
2022/10/22 09:15:26;;;;;;;23.20;14.57;;;;;;;;;;2388211;56;21085;-81
2022/10/22 09:18:03;;;;;;;23.58;16.05;;;;;;;;;;2644586;52;21041;-81
2022/10/22 09:20:34;;;;;;;24.30;16.30;;;;;;;;;;2644643;52;21033;-80
2022/10/22 09:23:06;;;;;;;25.50;15.15;;;;;;;;;;2644928;52;21101;-81
2022/10/22 09:25:35;;;;;;;29.40;16.35;;;;;;;;;;2644396;52;21033;-81
2022/10/22 09:28:02;;;;;;;25.35;16.60;;;;;;;;;;2644829;52;21088;-81
2022/10/22 09:30:30;;;;;;;26.35;16.75;;;;;;;;;;2388201;56;21037;-81
2022/10/22 09:33:00;;;;;;;26.00;15.15;;;;;;;;;;2644606;52;21085;-80
2022/10/22 09:35:27;;;;;;;24.20;15.68;;;;;;;;;;2387885;56;21062;-81
2022/10/22 09:37:55;;;;;;;29.15;16.12;;;;;;;;;;2644733;52;21022;-82
2022/10/22 09:40:23;;;;;;;20.80;13.82;;;;;;;;;;2386451;56;21057;-78
2022/10/22 09:45:57;;;;;;;24.00;14.57;;;;;;;;;;2400308;52;74144;-76
2022/10/22 09:48:29;;;;;;;23.15;13.60;;;;;;;;;;2315621;58;21064;-76
2022/10/22 09:51:00;;;;;;;24.47;14.13;;;;;;;;;;2316859;58;21020;-76
2022/10/22 09:53:29;;;;;;;23.55;13.38;;;;;;;;;;2315143;58;21044;-77
2022/10/22 09:55:57;;;;;;;19.55;12.23;;;;;;;;;;2556300;53;21016;-77
2022/10/22 09:58:24;;;;;;;18.58;11.95;;;;;;;;;;2315368;58;21044;-77
2022/10/22 10:00:54;;;;;;;22.05;11.20;;;;;;;;;;2315534;57;21103;-77
2022/10/22 10:03:22;;;;;;;17.00;10.55;;;;;;;;;;2555720;54;21088;-76
2022/10/22 10:05:51;;;;;;;16.67;11.18;;;;;;;;;;2315236;58;21040;-76
2022/10/22 10:08:18;;;;;;;21.75;11.55;;;;;;;;;;2316096;58;21024;-76
2022/10/22 10:10:47;;;;;;;16.20;9.93;;;;;;;;;;2316276;57;21027;-76
2022/10/22 10:13:39;;;;;;;17.90;9.80;;;;;;;;;;2316462;58;21024;-76
2022/10/22 10:16:10;;;;;;;18.02;10.13;;;;;;;;;;2313438;57;21070;-75
2022/10/22 10:18:43;;;;;;;13.25;9.32;;;;;;;;;;2316435;58;21040;-75
2022/10/22 10:21:16;;;;;;;15.10;9.75;;;;;;;;;;2318136;58;21575;-80
2022/10/22 10:23:46;;;;;;;15.45;9.77;;;;;;;;;;2559505;54;21008;-80
2022/10/22 10:26:16;;;;;;;15.85;9.18;;;;;;;;;;2319597;58;21095;-81
2022/10/22 10:28:54;;;;;;;17.75;9.20;;;;;;;;;;2559780;54;21507;-80
2022/10/22 10:31:26;;;;;;;12.55;8.02;;;;;;;;;;2559571;54;21031;-80
2022/10/22 10:34:00;;;;;;;19.05;8.68;;;;;;;;;;2319832;58;21036;-81
2022/10/22 10:36:32;;;;;;;14.65;7.85;;;;;;;;;;2319976;58;21047;-81
2022/10/22 10:39:03;;;;;;;14.55;8.07;;;;;;;;;;2560744;54;21080;-80
2022/10/22 10:41:38;;;;;;;11.68;7.37;;;;;;;;;;2560187;54;21032;-81
2022/10/22 10:44:30;;;;;;;10.73;6.12;;;;;;;;;;2560282;54;21124;-80
2022/10/22 10:47:04;;;;;;;10.48;6.75;;;;;;;;;;2531041;53;21072;-80
2022/10/22 10:49:32;;;;;;;11.00;7.03;;;;;;;;;;2560365;54;21051;-80
2022/10/22 10:52:03;;;;;;;7.70;5.68;;;;;;;;;;2320234;58;21091;-80
2022/10/22 10:54:38;;;;;;;12.75;6.15;;;;;;;;;;2559834;53;21083;-81
2022/10/22 10:57:10;;;;;;;9.50;5.72;;;;;;;;;;2560889;54;21012;-81
2022/10/22 10:59:45;;;;;;;13.50;6.55;;;;;;;;;;2561331;54;21079;-81
2022/10/22 11:02:23;;;;;;;8.82;6.07;;;;;;;;;;2320090;58;21040;-81
2022/10/22 11:05:01;;;;;;;12.50;6.10;;;;;;;;;;2320479;58;21076;-80
2022/10/22 11:07:31;;;;;;;12.27;6.25;;;;;;;;;;2560813;54;21394;-81
2022/10/22 11:10:01;;;;;;;9.88;5.55;;;;;;;;;;2319631;58;21036;-81
2022/10/22 11:12:31;;;;;;;11.68;5.22;;;;;;;;;;2319834;58;21538;-82
2022/10/22 11:15:01;;;;;;;14.68;5.90;;;;;;;;;;2319590;58;21482;-81
2022/10/22 11:17:32;;;;;;;12.30;5.05;;;;;;;;;;2560327;54;21695;-81
2022/10/22 11:20:02;;;;;;;8.75;4.45;;;;;;;;;;2560866;54;21079;-81
2022/10/22 11:22:33;;;;;;;10.73;5.00;;;;;;;;;;2559159;54;21614;-81
2022/10/22 11:25:02;;;;;;;13.35;5.28;;;;;;;;;;2560143;53;21035;-80
2022/10/22 11:27:31;;;;;;;7.90;4.10;;;;;;;;;;2560352;54;21071;-80
2022/10/22 11:30:02;;;;;;;10.23;3.95;;;;;;;;;;2319968;58;21032;-81
2022/10/22 11:32:29;;;;;;;8.45;3.97;;;;;;;;;;2319573;58;21594;-80
2022/10/22 11:34:58;;;;;;;7.82;4.05;;;;;;;;;;2560068;53;21026;-80
2022/10/22 11:37:26;;;;;;;10.35;3.97;;;;;;;;;;2319426;58;21032;-81
2022/10/22 11:39:54;;;;;;;9.55;4.12;;;;;;;;;;2560033;54;21095;-80
2022/10/22 11:42:22;;;;;;;8.77;3.28;;;;;;;;;;2318585;58;21031;-81
2022/10/22 11:44:58;;;;;;;5.12;2.83;;;;;;;;;;2559501;53;21499;-80
2022/10/22 11:47:27;;;;;;;10.93;3.25;;;;;;;;;;2559916;54;21075;-80
2022/10/22 11:49:59;;;;;;;6.57;3.10;;;;;;;;;;2559491;54;21032;-80
2022/10/22 11:52:40;;;;;;;12.95;3.58;;;;;;;;;;2319919;58;21355;-81
2022/10/22 11:55:29;;;;;;;14.45;3.28;;;;;;;;;;2320060;58;21028;-80
2022/10/22 11:57:59;;;;;;;10.38;3.12;;;;;;;;;;2319285;58;21096;-81
2022/10/22 12:00:34;;;;;;;13.05;3.60;;;;;;;;;;2558998;54;21075;-81
2022/10/22 12:03:14;;;;;;;6.32;3.05;;;;;;;;;;2319980;58;21088;-81
2022/10/22 12:05:41;;;;;;;10.93;2.45;;;;;;;;;;2319861;58;21040;-81
2022/10/22 12:08:37;;;;;;;8.48;2.97;;;;;;;;;;2559584;54;21092;-81
2022/10/22 12:11:13;;;;;;;6.22;2.85;;;;;;;;;;2295938;58;21059;-80
2022/10/22 12:13:59;;;;;;;7.80;2.80;;;;;;;;;;2319021;58;21076;-82
2022/10/22 12:16:26;;;;;;;9.73;2.83;;;;;;;;;;2559102;53;21483;-81
2022/10/22 12:18:58;;;;;;;10.52;2.50;;;;;;;;;;2319564;58;21031;-81
2022/10/22 12:21:25;;;;;;;5.05;2.85;;;;;;;;;;2558355;54;21079;-81
2022/10/22 12:23:52;;;;;;;11.35;3.70;;;;;;;;;;2319913;58;21036;-80
2022/10/22 12:29:06;;;;;;;9.13;2.92;;;;;;;;;;2607828;53;22090;-80
2022/10/22 12:31:36;;;;;;;4.82;2.35;;;;;;;;;;2596924;52;21069;-80
2022/10/22 12:34:03;;;;;;;6.22;2.60;;;;;;;;;;2349212;57;21579;-81
2022/10/22 12:36:32;;;;;;;6.28;2.65;;;;;;;;;;2626771;52;21570;-81
2022/10/22 12:39:00;;;;;;;7.95;2.80;;;;;;;;;;2376896;56;21102;-80
2022/10/22 12:41:31;;;;;;;4.72;2.00;;;;;;;;;;2629645;52;21430;-81
2022/10/22 12:43:59;;;;;;;6.05;2.45;;;;;;;;;;2629569;52;21062;-81
2022/10/22 12:46:27;;;;;;;8.13;2.42;;;;;;;;;;2375863;56;21098;-81
2022/10/22 12:48:54;;;;;;;5.45;2.42;;;;;;;;;;2377511;56;21054;-80
2022/10/22 12:51:22;;;;;;;7.40;2.35;;;;;;;;;;2630282;52;21102;-81
2022/10/22 12:53:50;;;;;;;3.83;1.95;;;;;;;;;;2376677;56;21054;-81
2022/10/22 12:56:22;;;;;;;7.20;2.00;;;;;;;;;;2376136;56;21107;-81
2022/10/22 12:58:51;;;;;;;5.32;2.33;;;;;;;;;;2630299;52;21046;-81
2022/10/22 13:01:18;;;;;;;6.78;2.33;;;;;;;;;;2376378;56;21043;-81
2022/10/22 13:03:48;;;;;;;6.85;2.45;;;;;;;;;;2630292;52;21111;-80
2022/10/22 13:06:23;;;;;;;9.98;2.30;;;;;;;;;;2627940;52;21096;-80
2022/10/22 13:08:57;;;;;;;3.90;2.12;;;;;;;;;;2376361;56;21142;-81
2022/10/22 13:11:24;;;;;;;6.95;2.78;;;;;;;;;;2375507;56;21047;-80
2022/10/22 13:13:51;;;;;;;4.75;2.53;;;;;;;;;;2628975;52;21042;-80
2022/10/22 13:16:21;;;;;;;11.65;3.25;;;;;;;;;;2375808;56;21537;-81
2022/10/22 13:18:48;;;;;;;8.25;3.25;;;;;;;;;;2629146;52;21078;-81
2022/10/22 13:21:27;;;;;;;8.20;3.03;;;;;;;;;;2376443;56;21058;-81
2022/10/22 13:26:34;;;;;;;6.12;2.90;;;;;;;;;;2513432;51;22147;-83
2022/10/22 13:29:01;;;;;;;3.30;2.65;;;;;;;;;;2393254;56;21117;-82
2022/10/22 13:31:32;;;;;;;6.07;3.00;;;;;;;;;;2392018;56;21030;-82
2022/10/22 13:34:00;;;;;;;6.50;3.00;;;;;;;;;;2390493;56;21022;-81
2022/10/22 13:36:28;;;;;;;4.75;2.50;;;;;;;;;;2377552;56;21024;-80
2022/10/22 13:38:55;;;;;;;8.32;2.83;;;;;;;;;;2365027;57;21091;-79
2022/10/22 13:41:23;;;;;;;6.75;2.75;;;;;;;;;;2615876;53;21024;-81
2022/10/22 13:43:50;;;;;;;5.70;2.70;;;;;;;;;;2365155;57;21032;-79
2022/10/22 13:46:17;;;;;;;5.78;2.83;;;;;;;;;;2363580;57;21055;-78
2022/10/22 13:48:45;;;;;;;4.37;2.50;;;;;;;;;;2615235;53;21041;-81
2022/10/22 13:51:14;;;;;;;3.55;2.45;;;;;;;;;;2614857;53;21019;-80
2022/10/22 13:53:41;;;;;;;7.43;2.60;;;;;;;;;;2364547;57;21031;-81
2022/10/22 13:58:48;;;;;;;7.80;2.90;;;;;;;;;;2390225;56;21038;-82
2022/10/22 14:01:19;;;;;;;9.70;3.20;;;;;;;;;;2392466;56;21014;-80
2022/10/22 14:03:47;;;;;;;9.82;2.87;;;;;;;;;;2391818;56;21078;-81
2022/10/22 14:06:15;;;;;;;5.82;2.65;;;;;;;;;;2380229;56;21151;-81
2022/10/22 14:08:42;;;;;;;7.97;2.60;;;;;;;;;;2364384;57;21099;-80
2022/10/22 14:11:10;;;;;;;5.53;2.42;;;;;;;;;;2614492;53;21040;-80
2022/10/22 14:13:37;;;;;;;6.75;2.45;;;;;;;;;;2363613;57;21083;-79
2022/10/22 14:16:05;;;;;;;7.50;2.55;;;;;;;;;;2615027;52;21524;-81
2022/10/22 14:18:32;;;;;;;6.55;2.30;;;;;;;;;;2364915;57;21119;-81
2022/10/22 14:21:03;;;;;;;5.85;2.30;;;;;;;;;;2362331;57;21040;-78
2022/10/22 14:23:31;;;;;;;9.50;2.60;;;;;;;;;;2615852;53;21144;-81
2022/10/22 14:25:58;;;;;;;6.93;2.03;;;;;;;;;;2614340;52;21024;-80
2022/10/22 14:28:25;;;;;;;5.22;2.75;;;;;;;;;;2615241;53;21036;-80
2022/10/22 14:30:52;;;;;;;11.52;2.80;;;;;;;;;;2614965;53;21032;-80
2022/10/22 14:33:21;;;;;;;9.13;2.70;;;;;;;;;;2364575;57;21008;-80
2022/10/22 14:35:48;;;;;;;8.68;2.20;;;;;;;;;;2614974;52;21020;-78
2022/10/22 14:38:15;;;;;;;7.55;2.20;;;;;;;;;;2613404;53;21068;-77
2022/10/22 14:43:20;;;;;;;8.55;2.67;;;;;;;;;;2281397;58;27940;-80
2022/10/22 14:45:48;;;;;;;7.32;2.42;;;;;;;;;;2299234;58;21069;-80
2022/10/22 14:48:15;;;;;;;7.75;3.12;;;;;;;;;;2318900;58;21060;-80
2022/10/22 14:50:42;;;;;;;7.72;2.65;;;;;;;;;;2317554;58;21119;-77
2022/10/22 14:53:09;;;;;;;3.97;1.87;;;;;;;;;;2319188;58;21144;-80
2022/10/22 14:55:36;;;;;;;6.45;2.37;;;;;;;;;;2317163;58;21147;-80